Time;durP1;ratioP1;P1;durP2;ratioP2;P2;SDS_P1;SDS_P2;PMS_P1;PMS_P2;Temp;Humidity;BMP_temperature;BMP_pressure;BME280_temperature;BME280_humidity;BME280_pressure;Samples;Min_cycle;Max_cycle;Signal;HPM_P1;HPM_P2
2022/10/12 00:02:03;;;;;;;0.57;0.40;;;22.70;46.80;;;;;;6300262;27;20055;-58
2022/10/12 00:05:06;;;;;;;0.70;0.50;;;22.00;46.50;;;;;;6307115;27;20046;-58
2022/10/12 00:08:08;;;;;;;0.98;0.45;;;22.70;46.90;;;;;;6301929;27;20049;-59
2022/10/12 00:11:10;;;;;;;;;;;22.60;46.80;;;;;;6305321;27;20150;-59
2022/10/12 00:14:12;;;;;;;0.75;0.55;;;22.60;46.80;;;;;;6307557;27;20062;-58
2022/10/12 00:17:13;;;;;;;;;;;22.80;46.80;;;;;;6302849;27;20157;-58
2022/10/12 00:20:15;;;;;;;0.88;0.60;;;22.90;46.90;;;;;;6306915;27;20682;-57
2022/10/12 00:23:17;;;;;;;0.60;0.50;;;22.40;46.40;;;;;;6309787;27;20042;-58
2022/10/12 00:26:19;;;;;;;;;;;22.50;46.50;;;;;;6289321;27;20074;-58
2022/10/12 00:29:20;;;;;;;1.00;0.80;;;22.10;46.30;;;;;;6284170;27;19949;-58
2022/10/12 00:32:21;;;;;;;;;;;22.60;46.40;;;;;;6310862;27;20108;-58
2022/10/12 00:35:24;;;;;;;0.50;0.40;;;22.70;46.70;;;;;;6312757;27;20910;-58
2022/10/12 00:38:25;;;;;;;1.20;0.70;;;22.40;46.40;;;;;;6305993;27;20073;-58
2022/10/12 00:41:28;;;;;;;;;;;22.20;46.10;;;;;;6313645;27;20145;-58
2022/10/12 00:44:40;;;;;;;0.60;0.40;;;22.60;46.50;;;;;;6312045;27;20042;-58
2022/10/12 00:47:49;;;;;;;1.02;0.50;;;22.60;46.20;;;;;;6273583;27;20039;-57
2022/10/12 00:50:52;;;;;;;0.50;0.40;;;22.40;46.00;;;;;;6308195;27;21030;-58
2022/10/12 00:53:57;;;;;;;0.82;0.52;;;22.80;46.20;;;;;;6306673;27;20100;-58
2022/10/12 00:57:01;;;;;;;0.50;0.40;;;22.20;45.70;;;;;;6311983;27;20040;-58
2022/10/12 01:00:07;;;;;;;0.68;0.50;;;22.50;45.90;;;;;;6313307;27;20074;-58
2022/10/12 01:03:12;;;;;;;0.73;0.43;;;22.70;46.00;;;;;;6313646;27;20053;-58
2022/10/12 01:06:15;;;;;;;0.82;0.63;;;22.00;45.50;;;;;;6316581;27;20055;-57
2022/10/12 01:09:18;;;;;;;0.80;0.50;;;22.20;45.50;;;;;;6311102;27;20373;-59
2022/10/12 01:12:20;;;;;;;0.85;0.40;;;22.50;45.70;;;;;;6303152;27;20216;-56
2022/10/12 01:15:24;;;;;;;0.50;0.40;;;22.50;45.60;;;;;;6309553;27;20627;-57
2022/10/12 01:18:32;;;;;;;1.02;0.70;;;22.10;45.30;;;;;;6307199;27;20082;-57
2022/10/12 01:21:41;;;;;;;0.75;0.45;;;22.40;45.60;;;;;;6311345;27;20049;-56
2022/10/12 01:24:50;;;;;;;0.65;0.50;;;22.30;45.40;;;;;;6309874;27;20063;-58
2022/10/12 01:27:54;;;;;;;0.45;0.40;;;22.20;45.30;;;;;;6289984;27;20042;-56
2022/10/12 01:31:02;;;;;;;0.75;0.50;;;22.20;45.30;;;;;;6288012;27;20043;-55
2022/10/12 01:34:10;;;;;;;0.57;0.40;;;22.20;45.20;;;;;;6292512;27;20154;-55
2022/10/12 01:37:17;;;;;;;;;;;22.10;45.00;;;;;;6309593;27;20151;-57
2022/10/12 01:40:30;;;;;;;0.50;0.40;;;22.10;45.40;;;;;;6309004;27;20412;-58
2022/10/12 01:43:34;;;;;;;0.68;0.50;;;22.20;45.30;;;;;;6310804;27;20342;-56
2022/10/12 01:46:41;;;;;;;0.90;0.50;;;22.50;45.30;;;;;;6308202;27;20559;-56
2022/10/12 01:49:46;;;;;;;0.80;0.50;;;22.40;59.20;;;;;;6307122;27;20133;-56
2022/10/12 01:52:57;;;;;;;0.73;0.47;;;22.50;45.30;;;;;;6307045;27;20158;-56
2022/10/12 01:56:08;;;;;;;1.05;0.40;;;22.40;45.10;;;;;;6306506;27;20574;-56
2022/10/12 01:59:19;;;;;;;0.47;0.30;;;22.90;45.30;;;;;;6306844;27;20570;-59
2022/10/12 02:02:29;;;;;;;0.68;0.45;;;22.40;45.00;;;;;;6306434;27;20900;-58
2022/10/12 02:05:37;;;;;;;0.35;0.35;;;22.50;45.00;;;;;;6290961;27;20234;-56
2022/10/12 02:08:44;;;;;;;0.60;0.50;;;22.00;44.80;;;;;;6291134;28;20061;-58
2022/10/12 02:11:49;;;;;;;0.50;0.35;;;22.30;44.80;;;;;;6293179;27;20325;-58
2022/10/12 02:14:55;;;;;;;0.70;0.50;;;22.50;44.90;;;;;;6308150;27;20090;-58
2022/10/12 02:17:57;;;;;;;0.73;0.45;;;22.50;44.90;;;;;;6308303;27;20136;-57
2022/10/12 02:20:59;;;;;;;0.60;0.40;;;22.60;45.00;;;;;;6306437;27;20055;-57
2022/10/12 02:24:05;;;;;;;0.63;0.43;;;22.50;44.90;;;;;;6303657;27;20078;-55
2022/10/12 02:27:08;;;;;;;0.52;0.47;;;21.90;44.50;;;;;;6308857;27;20234;-55
2022/10/12 02:30:10;;;;;;;0.47;0.35;;;22.40;44.70;;;;;;6290657;27;20877;-56
2022/10/12 02:33:19;;;;;;;0.60;0.50;;;22.50;44.80;;;;;;6307412;27;20458;-57
2022/10/12 02:36:30;;;;;;;0.95;0.30;;;22.00;44.40;;;;;;6297366;27;20054;-58
2022/10/12 02:39:37;;;;;;;0.75;0.40;;;21.90;44.30;;;;;;6314505;27;20075;-59
2022/10/12 02:42:44;;;;;;;0.68;0.47;;;22.10;44.40;;;;;;6296220;27;20868;-59
2022/10/12 02:46:09;;;;;;;0.57;0.38;;;22.30;44.50;;;;;;6299334;27;20899;-55
2022/10/12 02:49:12;;;;;;;0.40;0.40;;;22.00;44.30;;;;;;6315731;27;20051;-58
2022/10/12 02:52:17;;;;;;;0.55;0.30;;;22.10;44.30;;;;;;6315148;27;20058;-58
2022/10/12 02:55:18;;;;;;;0.52;0.45;;;22.00;44.40;;;;;;6314673;27;20047;-59
2022/10/12 02:58:20;;;;;;;0.80;0.50;;;21.90;44.40;;;;;;6297829;28;20095;-59
2022/10/12 03:01:21;;;;;;;;;;;22.00;44.50;;;;;;6317519;27;20046;-57
2022/10/12 03:04:23;;;;;;;0.40;0.30;;;22.20;44.80;;;;;;6316496;27;20049;-57
2022/10/12 03:07:25;;;;;;;0.65;0.60;;;22.10;44.60;;;;;;6318407;27;20092;-59
2022/10/12 03:10:26;;;;;;;0.70;0.50;;;22.00;44.40;;;;;;6317013;27;20150;-59
2022/10/12 03:13:27;;;;;;;;;;;22.00;44.40;;;;;;6317782;27;20917;-57
2022/10/12 03:16:29;;;;;;;0.55;0.40;;;21.90;44.60;;;;;;6313358;27;19927;-58
2022/10/12 03:19:31;;;;;;;0.30;0.30;;;21.90;44.30;;;;;;6315710;27;20046;-59
2022/10/12 03:22:33;;;;;;;0.55;0.40;;;22.00;44.30;;;;;;6315487;27;20150;-63
2022/10/12 03:25:34;;;;;;;0.65;0.50;;;21.80;44.20;;;;;;6312347;27;20039;-63
2022/10/12 03:28:35;;;;;;;;;;;22.60;44.60;;;;;;6315086;27;21120;-62
2022/10/12 03:31:37;;;;;;;1.83;0.40;;;21.90;44.60;;;;;;6309053;27;19992;-61
2022/10/12 03:34:39;;;;;;;0.60;0.30;;;21.90;44.50;;;;;;6311693;27;20043;-61
2022/10/12 03:37:40;;;;;;;0.40;0.40;;;22.00;44.40;;;;;;6311864;27;20043;-61
2022/10/12 03:40:43;;;;;;;1.15;0.30;;;22.00;44.30;;;;;;6312672;27;20036;-61
2022/10/12 03:43:45;;;;;;;0.55;0.43;;;22.00;44.20;;;;;;6295919;27;20104;-61
2022/10/12 03:46:49;;;;;;;0.85;0.30;;;22.20;44.20;;;;;;6314653;27;20046;-61
2022/10/12 03:49:51;;;;;;;0.30;0.30;;;22.20;58.90;;;;;;6295044;27;20150;-61
2022/10/12 03:52:53;;;;;;;0.82;0.50;;;22.30;44.20;;;;;;6313285;27;20047;-61
2022/10/12 03:55:54;;;;;;;0.43;0.40;;;22.30;44.20;;;;;;6314537;27;20074;-61
2022/10/12 03:58:55;;;;;;;;;;;22.30;44.20;;;;;;6315925;27;20965;-61
2022/10/12 04:01:57;;;;;;;0.30;0.30;;;21.80;44.20;;;;;;6310887;27;20766;-61
2022/10/12 04:04:59;;;;;;;;;;;22.20;44.20;;;;;;6311460;27;20082;-61
2022/10/12 04:08:00;;;;;;;;;;;22.00;44.30;;;;;;6310914;27;19996;-61
2022/10/12 04:11:05;;;;;;;0.30;0.30;;;22.40;44.60;;;;;;6314025;27;20791;-61
2022/10/12 04:14:06;;;;;;;0.65;0.30;;;22.20;44.20;;;;;;6315393;27;20046;-61
2022/10/12 04:17:08;;;;;;;;;;;21.80;43.90;;;;;;6311580;27;20124;-61
2022/10/12 04:20:11;;;;;;;1.10;0.60;;;21.80;44.20;;;;;;6309380;27;19930;-61
2022/10/12 04:23:13;;;;;;;0.65;0.35;;;22.30;44.00;;;;;;6308609;27;20184;-61
2022/10/12 04:26:14;;;;;;;1.58;0.45;;;22.10;44.00;;;;;;6312015;27;20150;-61
2022/10/12 04:29:16;;;;;;;;;;;21.60;43.60;;;;;;6306280;27;20039;-61
2022/10/12 04:32:17;;;;;;;0.70;0.50;;;21.80;44.00;;;;;;6307826;27;20060;-61
2022/10/12 04:35:19;;;;;;;;;;;22.20;43.90;;;;;;6307758;27;20908;-61
2022/10/12 04:38:21;;;;;;;0.43;0.30;;;22.30;43.90;;;;;;6305359;27;19931;-61
2022/10/12 04:41:22;;;;;;;;;;;21.90;43.90;;;;;;6308517;27;21301;-61
2022/10/12 04:44:23;;;;;;;0.57;0.32;;;21.90;44.00;;;;;;6305966;27;19959;-61
2022/10/12 04:47:33;;;;;;;0.50;0.40;;;22.20;44.00;;;;;;6303077;27;20142;-60
2022/10/12 04:50:35;;;;;;;0.70;0.50;;;22.20;43.90;;;;;;6311946;27;20036;-60
2022/10/12 04:53:37;;;;;;;0.50;0.40;;;21.90;43.60;;;;;;6303394;27;20101;-60
2022/10/12 04:56:38;;;;;;;0.77;0.50;;;22.00;43.80;;;;;;6313768;27;20740;-61
2022/10/12 04:59:40;;;;;;;;;;;22.20;43.90;;;;;;6311463;27;20031;-60
2022/10/12 05:02:41;;;;;;;0.40;0.30;;;21.80;43.90;;;;;;6304000;27;20717;-60
2022/10/12 05:05:44;;;;;;;0.40;0.38;;;22.20;44.00;;;;;;6295454;27;20043;-60
2022/10/12 05:08:46;;;;;;;0.60;0.40;;;22.10;43.70;;;;;;6302377;27;20043;-60
2022/10/12 05:11:47;;;;;;;0.98;0.47;;;22.40;43.90;;;;;;6305638;27;20051;-60
2022/10/12 05:14:49;;;;;;;0.65;0.30;;;22.00;44.30;;;;;;6308201;27;20031;-60
2022/10/12 05:17:54;;;;;;;0.52;0.40;;;22.10;42.90;;;;;;6314212;27;20040;-61
2022/10/12 05:20:56;;;;;;;0.52;0.40;;;22.40;43.60;;;;;;6311671;27;20114;-60
2022/10/12 05:24:01;;;;;;;1.00;0.60;;;22.00;43.50;;;;;;6310407;27;20058;-61
2022/10/12 05:27:03;;;;;;;0.40;0.30;;;22.30;43.50;;;;;;6309616;27;20048;-61
2022/10/12 05:30:06;;;;;;;0.70;0.50;;;22.30;44.00;;;;;;6305580;27;20913;-61
2022/10/12 05:33:08;;;;;;;0.50;0.40;;;22.30;43.30;;;;;;6266673;27;20043;-60
2022/10/12 05:36:10;;;;;;;;;;;21.90;43.30;;;;;;6303505;27;20047;-60
2022/10/12 05:39:11;;;;;;;;;;;21.70;43.40;;;;;;6296549;27;19927;-61
2022/10/12 05:42:13;;;;;;;0.85;0.55;;;22.20;43.90;;;;;;5430456;27;23034;-60
2022/10/12 05:45:14;;;;;;;1.13;0.82;;;21.90;43.50;;;;;;6301115;27;20115;-60
2022/10/12 05:48:16;;;;;;;1.80;0.90;;;21.80;43.30;;;;;;6296904;27;20051;-61
2022/10/12 05:51:18;;;;;;;;;;;21.60;43.20;;;;;;6300157;27;20050;-61
2022/10/12 05:54:24;;;;;;;2.83;1.10;;;21.90;43.80;;;;;;6236301;27;20714;-61
2022/10/12 05:57:26;;;;;;;3.28;1.40;;;21.70;43.30;;;;;;6289013;27;20051;-61
2022/10/12 06:00:27;;;;;;;;;;;21.80;43.70;;;;;;6295314;27;20144;-61
2022/10/12 06:03:29;;;;;;;5.80;1.77;;;21.50;44.00;;;;;;6285960;27;19928;-61
2022/10/12 06:06:36;;;;;;;4.97;1.67;;;21.40;43.50;;;;;;6288849;27;20043;-61
2022/10/12 06:09:38;;;;;;;2.88;1.70;;;21.80;44.10;;;;;;6289863;27;20139;-61
2022/10/12 06:12:40;;;;;;;3.65;1.73;;;21.70;44.20;;;;;;6281580;27;20160;-61
2022/10/12 06:15:44;;;;;;;4.88;1.80;;;21.60;44.50;;;;;;6275451;27;20116;-61
2022/10/12 06:18:46;;;;;;;4.35;1.85;;;21.40;44.40;;;;;;6251407;27;20086;-61
2022/10/12 06:21:48;;;;;;;6.75;2.10;;;21.80;44.70;;;;;;6279682;27;20049;-61
2022/10/12 06:24:49;;;;;;;6.35;2.10;;;21.00;44.70;;;;;;6241203;27;20124;-60
2022/10/12 06:27:51;;;;;;;;;;;21.30;44.90;;;;;;6244478;27;20051;-61
2022/10/12 06:30:58;;;;;;;4.35;1.50;;;21.40;45.40;;;;;;6256863;27;19927;-60
2022/10/12 06:34:00;;;;;;;4.78;1.90;;;21.00;45.10;;;;;;6070227;27;20167;-60
2022/10/12 06:37:02;;;;;;;6.35;1.98;;;21.00;45.30;;;;;;6237025;27;20227;-60
2022/10/12 06:40:05;;;;;;;4.57;1.80;;;21.10;45.90;;;;;;6232600;27;21047;-61
2022/10/12 06:43:09;;;;;;;4.28;1.73;;;21.50;46.30;;;;;;6180007;27;20043;-60
2022/10/12 06:46:11;;;;;;;3.15;1.60;;;20.80;46.00;;;;;;6196325;27;20402;-60
2022/10/12 06:49:12;;;;;;;;;;;21.30;46.10;;;;;;6192518;27;20043;-61
2022/10/12 06:52:14;;;;;;;3.88;2.05;;;20.70;46.00;;;;;;6188470;27;20070;-60
2022/10/12 06:55:18;;;;;;;6.25;2.20;;;20.90;45.80;;;;;;6161000;27;22115;-61
2022/10/12 06:58:21;;;;;;;7.13;2.40;;;21.10;46.00;;;;;;6130777;27;20075;-60
2022/10/12 07:01:22;;;;;;;;;;;21.20;45.90;;;;;;6146305;27;20047;-61
2022/10/12 07:04:25;;;;;;;4.03;1.75;;;21.50;46.10;;;;;;6094210;27;19927;-61
2022/10/12 07:07:30;;;;;;;4.10;2.10;;;21.20;46.10;;;;;;6121948;27;20051;-61
2022/10/12 07:10:32;;;;;;;1.63;1.00;;;20.80;45.90;;;;;;5047972;27;20081;-60
2022/10/12 07:13:34;;;;;;;4.65;1.10;;;21.10;46.20;;;;;;6095947;27;20069;-61
2022/10/12 07:16:35;;;;;;;2.90;1.17;;;21.60;46.60;;;;;;6057723;27;27988;-60
2022/10/12 07:19:38;;;;;;;0.90;0.80;;;20.70;46.10;;;;;;4687108;27;20102;-61
2022/10/12 07:22:43;;;;;;;3.85;1.13;;;21.20;46.70;;;;;;4508937;27;21278;-61
2022/10/12 07:25:48;;;;;;;2.40;0.98;;;20.80;46.20;;;;;;5427800;27;22292;-61
2022/10/12 07:28:50;;;;;;;1.02;0.73;;;21.40;46.40;;;;;;5981671;27;20659;-61
2022/10/12 07:31:55;;;;;;;1.35;0.98;;;21.40;46.40;;;;;;6071214;27;20047;-57
2022/10/12 07:34:57;;;;;;;2.88;1.00;;;21.30;46.40;;;;;;3818486;27;22427;-57
2022/10/12 07:38:01;;;;;;;1.98;0.80;;;21.20;46.40;;;;;;3876840;27;21914;-56
2022/10/12 07:41:08;;;;;;;2.10;0.82;;;21.40;47.00;;;;;;3734291;27;22869;-57
2022/10/12 07:44:11;;;;;;;1.25;0.70;;;21.00;47.20;;;;;;5071041;27;23870;-58
2022/10/12 07:47:16;;;;;;;1.10;0.60;;;21.80;47.20;;;;;;4006105;27;21185;-57
2022/10/12 07:50:18;;;;;;;1.40;0.50;;;21.80;46.70;;;;;;5948569;27;20178;-58
2022/10/12 07:53:21;;;;;;;0.85;0.50;;;21.80;47.50;;;;;;5972537;27;21536;-55
2022/10/12 07:56:23;;;;;;;0.70;0.50;;;21.40;46.50;;;;;;6015206;27;20035;-56
2022/10/12 07:59:25;;;;;;;3.67;0.60;;;21.70;46.80;;;;;;4967853;27;20624;-57
2022/10/12 08:02:29;;;;;;;1.48;0.60;;;21.50;47.10;;;;;;3318098;27;26088;-58
2022/10/12 08:05:31;;;;;;;1.02;0.50;;;21.60;47.30;;;;;;3722846;27;20753;-59
2022/10/12 08:08:35;;;;;;;1.63;0.75;;;21.40;46.80;;;;;;3512894;27;24254;-59
2022/10/12 08:11:38;;;;;;;2.15;0.98;;;21.60;46.90;;;;;;3846495;27;22929;-60
2022/10/12 08:14:41;;;;;;;1.48;0.70;;;22.00;46.60;;;;;;4832197;27;21319;-59
2022/10/12 08:17:42;;;;;;;1.08;0.60;;;21.20;46.80;;;;;;4612818;27;20046;-59
2022/10/12 08:20:45;;;;;;;;;;;21.90;46.60;;;;;;4429424;27;23010;-59
2022/10/12 08:23:49;;;;;;;0.90;0.50;;;22.40;46.20;;;;;;4378262;27;21655;-55
2022/10/12 08:26:51;;;;;;;1.27;0.50;;;22.10;47.40;;;;;;4294647;27;20937;-53
2022/10/12 08:29:53;;;;;;;1.85;0.40;;;21.90;46.60;;;;;;4339602;27;20661;-56
2022/10/12 08:32:54;;;;;;;;;;;21.60;46.10;;;;;;6042498;27;20052;-56
2022/10/12 08:36:01;;;;;;;0.75;0.50;;;22.30;46.80;;;;;;6054882;28;20053;-55
2022/10/12 08:39:05;;;;;;;0.70;0.40;;;22.50;46.60;;;;;;6068238;28;21169;-55
2022/10/12 08:42:20;;;;;;;1.80;0.55;;;22.10;46.40;;;;;;6088559;28;20082;-55
2022/10/12 08:45:33;;;;;;;1.00;0.50;;;22.10;46.30;;;;;;6069560;28;20522;-54
2022/10/12 08:48:43;;;;;;;0.80;0.52;;;22.30;46.50;;;;;;6072229;28;21042;-55
2022/10/12 08:51:51;;;;;;;6.60;0.57;;;22.40;46.50;;;;;;5420641;28;23211;-56
2022/10/12 08:54:59;;;;;;;0.88;0.38;;;21.80;47.30;;;;;;3274005;28;23560;-56
2022/10/12 08:58:02;;;;;;;0.60;0.40;;;22.10;47.30;;;;;;3283260;28;23614;-52
2022/10/12 09:01:14;;;;;;;0.47;0.30;;;21.80;47.20;;;;;;3553396;28;22704;-59
2022/10/12 09:04:35;;;;;;;1.52;0.70;;;22.30;47.10;;;;;;3659476;28;22798;-59
2022/10/12 09:07:41;;;;;;;0.60;0.50;;;22.30;47.00;;;;;;3619821;28;24033;-59
2022/10/12 09:10:49;;;;;;;0.93;0.40;;;21.80;47.30;;;;;;3410386;28;22715;-60
2022/10/12 09:13:57;;;;;;;1.13;0.30;;;22.00;47.10;;;;;;3450508;28;21173;-59
2022/10/12 09:17:04;;;;;;;0.63;0.35;;;22.00;47.20;;;;;;3303667;28;24443;-58
2022/10/12 09:20:16;;;;;;;1.90;0.50;;;22.20;47.40;;;;;;3299844;27;21524;-59
2022/10/12 09:23:24;;;;;;;0.73;0.50;;;22.30;47.80;;;;;;3357721;28;23927;-59
2022/10/12 09:26:33;;;;;;;0.95;0.80;;;22.60;47.90;;;;;;3449265;28;24719;-59
2022/10/12 09:29:35;;;;;;;1.75;0.60;;;22.60;47.10;;;;;;5990132;28;20048;-58
2022/10/12 09:32:42;;;;;;;;;;;22.50;47.20;;;;;;5203571;28;20044;-58
2022/10/12 09:35:45;;;;;;;0.95;0.40;;;22.60;47.80;;;;;;6017968;27;19928;-61
2022/10/12 09:38:47;;;;;;;0.85;0.40;;;22.90;47.80;;;;;;6072700;28;20110;-60
2022/10/12 09:41:49;;;;;;;0.65;0.40;;;22.80;47.50;;;;;;4322231;28;22014;-59
2022/10/12 09:44:57;;;;;;;1.25;0.70;;;22.50;47.90;;;;;;4727772;28;22010;-59
2022/10/12 09:48:18;;;;;;;1.33;0.68;;;22.70;47.70;;;;;;5685545;28;21549;-59
2022/10/12 09:51:24;;;;;;;0.73;0.50;;;21.70;48.00;;;;;;5341793;28;20047;-62
2022/10/12 09:54:27;;;;;;;0.70;0.60;;;22.60;47.50;;;;;;3679407;28;23945;-58
2022/10/12 09:57:33;;;;;;;0.90;0.60;;;22.50;48.50;;;;;;3574758;27;21981;-58
2022/10/12 10:00:36;;;;;;;1.08;0.60;;;21.90;48.50;;;;;;3250782;28;22709;-59
2022/10/12 10:03:38;;;;;;;0.70;0.50;;;22.20;48.40;;;;;;5468914;28;20044;-59
2022/10/12 10:06:43;;;;;;;1.27;0.70;;;22.40;48.80;;;;;;3828827;27;23183;-57
2022/10/12 10:09:48;;;;;;;1.88;0.73;;;22.50;49.20;;;;;;3594486;28;22445;-59
2022/10/12 10:12:53;;;;;;;1.83;0.70;;;23.00;49.30;;;;;;4771136;28;21037;-58
2022/10/12 10:16:03;;;;;;;0.93;0.52;;;22.80;48.60;;;;;;6089669;28;21652;-59
2022/10/12 10:19:05;;;;;;;0.82;0.40;;;23.00;49.60;;;;;;6093274;28;20054;-59
2022/10/12 10:22:07;;;;;;;0.70;0.55;;;22.90;48.90;;;;;;5783726;28;20098;-59
2022/10/12 10:25:20;;;;;;;2.25;0.70;;;23.00;49.00;;;;;;6033451;28;25774;-58
2022/10/12 10:28:26;;;;;;;0.80;0.52;;;22.60;48.90;;;;;;4453229;28;21770;-59
2022/10/12 10:31:29;;;;;;;0.63;0.52;;;22.80;49.60;;;;;;4660271;28;20045;-58
2022/10/12 10:34:30;;;;;;;1.30;0.55;;;22.20;49.00;;;;;;6103772;28;20032;-59
2022/10/12 10:37:34;;;;;;;1.48;0.55;;;22.70;49.30;;;;;;4801673;28;22133;-59
2022/10/12 10:40:39;;;;;;;0.88;0.60;;;20.70;49.00;;;;;;3823929;28;21967;-59
2022/10/12 10:43:48;;;;;;;0.90;0.50;;;22.70;49.70;;;;;;6005656;28;23178;-61
2022/10/12 10:46:53;;;;;;;2.42;0.80;;;23.00;49.70;;;;;;3859309;27;21987;-59
2022/10/12 10:49:58;;;;;;;0.75;0.50;;;22.70;50.30;;;;;;4738638;28;20491;-60
2022/10/12 10:53:03;;;;;;;1.08;0.50;;;22.70;49.80;;;;;;6116305;28;20040;-60
2022/10/12 10:56:10;;;;;;;1.60;0.40;;;23.00;50.00;;;;;;4178172;28;22531;-60
2022/10/12 10:59:20;;;;;;;3.53;0.55;;;22.20;50.10;;;;;;3845005;28;21162;-60
2022/10/12 11:02:28;;;;;;;1.38;0.47;;;23.20;50.30;;;;;;5885315;28;21289;-60
2022/10/12 11:05:35;;;;;;;4.32;1.70;;;22.60;50.10;;;;;;4827257;28;21171;-60
2022/10/12 11:08:42;;;;;;;3.03;1.40;;;22.60;50.40;;;;;;5678930;28;21180;-59
2022/10/12 11:11:46;;;;;;;3.85;1.77;;;23.10;50.90;;;;;;6146430;28;20040;-59
2022/10/12 11:14:52;;;;;;;2.15;1.25;;;23.10;51.00;;;;;;6127183;28;21099;-59
2022/10/12 11:17:58;;;;;;;1.40;0.77;;;22.90;51.00;;;;;;6105867;28;20809;-59
2022/10/12 11:21:04;;;;;;;1.40;0.80;;;23.00;51.20;;;;;;6168470;28;21291;-59
2022/10/12 11:24:12;;;;;;;1.08;0.70;;;23.00;51.20;;;;;;6128952;28;20054;-59
2022/10/12 11:27:18;;;;;;;2.70;1.20;;;22.70;51.00;;;;;;6179800;28;20911;-60
2022/10/12 11:30:23;;;;;;;1.13;0.70;;;23.20;51.30;;;;;;6175228;28;20067;-59
2022/10/12 11:33:27;;;;;;;1.00;0.73;;;23.30;51.50;;;;;;6152786;28;20044;-60
2022/10/12 11:36:31;;;;;;;2.33;0.80;;;23.10;51.40;;;;;;6093424;28;20048;-59
2022/10/12 11:39:38;;;;;;;1.30;0.90;;;23.10;51.40;;;;;;6090546;28;20043;-60
2022/10/12 11:42:41;;;;;;;1.00;0.70;;;23.30;51.50;;;;;;6095968;28;20524;-59
2022/10/12 11:45:49;;;;;;;0.90;0.65;;;23.20;51.30;;;;;;6093301;28;20051;-61
2022/10/12 11:48:56;;;;;;;1.20;0.70;;;22.90;51.20;;;;;;6101764;28;20125;-60
2022/10/12 11:52:04;;;;;;;1.02;0.70;;;23.10;51.40;;;;;;6065599;28;21359;-60
2022/10/12 11:55:26;;;;;;;3.22;0.50;;;23.50;51.60;;;;;;5497898;28;21970;-60
2022/10/12 11:58:30;;;;;;;1.08;0.50;;;23.50;51.90;;;;;;5751916;28;20058;-61
2022/10/12 12:02:03;;;;;;;0.52;0.40;;;23.40;51.60;;;;;;5937127;28;20071;-62
2022/10/12 12:05:10;;;;;;;1.00;0.65;;;23.40;51.80;;;;;;5810855;28;20088;-59
2022/10/12 12:08:22;;;;;;;0.50;0.50;;;23.50;52.40;;;;;;5862701;28;21258;-59
2022/10/12 12:11:26;;;;;;;0.93;0.52;;;23.30;51.70;;;;;;5995728;28;22151;-59
2022/10/12 12:14:45;;;;;;;1.05;0.40;;;23.50;51.80;;;;;;5996770;27;20044;-59
2022/10/12 12:18:12;;;;;;;2.38;0.65;;;23.20;51.70;;;;;;6011416;27;20158;-59
2022/10/12 12:21:15;;;;;;;0.90;0.50;;;23.60;51.90;;;;;;5359366;28;21999;-59
2022/10/12 12:24:18;;;;;;;2.15;0.50;;;23.10;52.10;;;;;;3986051;28;21244;-59
2022/10/12 12:27:22;;;;;;;0.75;0.60;;;23.30;51.80;;;;;;6001980;28;20126;-60
2022/10/12 12:30:38;;;;;;;0.73;0.50;;;23.50;51.80;;;;;;5981004;28;20060;-60
2022/10/12 12:33:42;;;;;;;0.63;0.40;;;23.60;51.90;;;;;;6049059;28;20051;-59
2022/10/12 12:36:46;;;;;;;0.50;0.40;;;23.30;51.50;;;;;;4363113;28;21704;-59
2022/10/12 12:39:54;;;;;;;0.47;0.40;;;23.20;51.80;;;;;;5865386;28;21270;-60
2022/10/12 12:43:16;;;;;;;0.70;0.50;;;23.70;51.60;;;;;;6029367;28;20071;-60
2022/10/12 12:46:19;;;;;;;0.70;0.45;;;23.70;51.60;;;;;;6046300;28;20040;-57
2022/10/12 12:49:26;;;;;;;1.80;0.60;;;23.00;51.00;;;;;;6057555;28;20236;-59
2022/10/12 12:52:33;;;;;;;0.50;0.40;;;23.30;51.20;;;;;;4038966;28;20075;-59
2022/10/12 12:55:51;;;;;;;0.93;0.60;;;23.80;51.90;;;;;;3574013;28;22933;-57
2022/10/12 12:59:11;;;;;;;0.70;0.38;;;23.60;51.60;;;;;;5488866;28;22444;-59
2022/10/12 13:02:33;;;;;;;0.77;0.50;;;23.90;51.20;;;;;;4011835;28;22235;-60
2022/10/12 13:06:02;;;;;;;0.43;0.40;;;23.60;51.10;;;;;;3599964;28;22907;-59
2022/10/12 13:09:32;;;;;;;2.92;0.60;;;23.50;51.30;;;;;;3691714;27;23071;-60
2022/10/12 13:12:52;;;;;;;0.63;0.50;;;23.50;50.80;;;;;;5095997;28;20082;-60
2022/10/12 13:16:05;;;;;;;1.00;0.60;;;24.10;50.50;;;;;;6047776;28;20054;-60
2022/10/12 13:19:11;;;;;;;0.80;0.60;;;23.90;50.30;;;;;;6028990;28;21254;-58
2022/10/12 13:22:26;;;;;;;0.90;0.60;;;24.10;50.30;;;;;;5758805;28;20044;-57
2022/10/12 13:25:36;;;;;;;0.93;0.60;;;23.60;50.40;;;;;;5562156;28;21619;-57
2022/10/12 13:28:42;;;;;;;0.80;0.60;;;23.80;50.40;;;;;;3648674;28;22920;-59
2022/10/12 13:31:47;;;;;;;1.58;0.80;;;23.90;50.20;;;;;;4391493;28;20804;-59
2022/10/12 13:34:54;;;;;;;0.82;0.65;;;23.80;50.00;;;;;;5423353;28;20925;-58
2022/10/12 13:38:00;;;;;;;0.90;0.70;;;23.80;49.80;;;;;;6050577;28;20098;-58
2022/10/12 13:41:08;;;;;;;1.60;0.55;;;23.90;49.70;;;;;;6048555;28;20044;-58
2022/10/12 13:44:20;;;;;;;0.90;0.75;;;23.50;49.60;;;;;;5938758;28;20046;-58
2022/10/12 13:47:24;;;;;;;0.75;0.52;;;23.70;49.80;;;;;;6000179;28;20064;-58
2022/10/12 13:50:25;;;;;;;1.00;0.90;;;23.80;49.70;;;;;;5325531;28;20040;-59
2022/10/12 13:53:35;;;;;;;1.17;0.63;;;24.10;49.80;;;;;;3786468;28;22093;-58
2022/10/12 13:56:40;;;;;;;1.20;0.90;;;23.60;50.00;;;;;;3608844;28;23192;-58
2022/10/12 13:59:43;;;;;;;0.90;0.70;;;23.60;49.80;;;;;;4681844;28;24079;-61
2022/10/12 14:02:54;;;;;;;0.80;0.60;;;24.00;49.40;;;;;;6043656;28;21678;-60
2022/10/12 14:05:55;;;;;;;0.65;0.63;;;23.60;49.00;;;;;;6031114;28;21086;-58
2022/10/12 14:09:07;;;;;;;1.15;0.70;;;23.90;49.10;;;;;;5287460;28;22271;-57
2022/10/12 14:12:11;;;;;;;0.65;0.40;;;23.90;49.10;;;;;;4550416;28;20039;-58
2022/10/12 14:15:14;;;;;;;1.00;0.65;;;23.60;49.10;;;;;;4942541;28;20048;-59
2022/10/12 14:18:36;;;;;;;0.98;0.60;;;23.70;49.30;;;;;;3794130;28;23023;-58
2022/10/12 14:21:46;;;;;;;1.52;0.75;;;23.60;48.90;;;;;;3747613;28;23594;-59
2022/10/12 14:24:50;;;;;;;0.77;0.60;;;23.80;49.10;;;;;;5487572;28;21209;-61
2022/10/12 14:27:55;;;;;;;0.80;0.60;;;24.10;48.80;;;;;;5711169;28;20039;-60
2022/10/12 14:30:58;;;;;;;1.00;0.70;;;24.00;48.60;;;;;;4209027;28;21565;-60
2022/10/12 14:34:23;;;;;;;0.85;0.47;;;24.20;49.00;;;;;;4848984;28;21266;-60
2022/10/12 14:37:29;;;;;;;0.60;0.50;;;23.70;48.50;;;;;;3832932;28;21446;-59
2022/10/12 14:40:38;;;;;;;0.75;0.57;;;23.80;48.70;;;;;;4003029;27;22056;-61
2022/10/12 14:43:40;;;;;;;0.75;0.50;;;24.00;48.60;;;;;;4974804;27;21054;-60
2022/10/12 14:46:51;;;;;;;0.80;0.57;;;23.50;48.60;;;;;;5366530;28;23367;-58
2022/10/12 14:49:57;;;;;;;0.60;0.50;;;24.10;48.90;;;;;;4242414;28;21632;-62
2022/10/12 14:53:03;;;;;;;0.80;0.60;;;23.70;48.30;;;;;;5875463;28;20141;-60
2022/10/12 14:56:05;;;;;;;0.75;0.60;;;24.20;48.60;;;;;;6069508;28;21414;-60
2022/10/12 14:59:07;;;;;;;0.68;0.52;;;24.40;48.70;;;;;;6075951;28;20082;-58
2022/10/12 15:02:17;;;;;;;0.85;0.50;;;24.00;49.10;;;;;;6033626;28;20077;-58
2022/10/12 15:05:21;;;;;;;0.88;0.52;;;24.10;48.50;;;;;;6041092;28;20032;-58
2022/10/12 15:08:23;;;;;;;0.98;0.50;;;23.90;48.50;;;;;;6060766;28;20146;-58
2022/10/12 15:11:24;;;;;;;1.10;0.63;;;23.40;48.30;;;;;;6068583;28;20051;-59
2022/10/12 15:14:27;;;;;;;0.50;0.40;;;24.10;48.50;;;;;;5402684;28;22831;-57
2022/10/12 15:17:29;;;;;;;0.60;0.60;;;24.10;48.90;;;;;;3936069;28;24801;-56
2022/10/12 15:20:33;;;;;;;0.50;0.50;;;23.80;48.70;;;;;;3940674;28;20177;-58
2022/10/12 15:23:38;;;;;;;0.80;0.68;;;24.10;48.60;;;;;;3921626;28;22973;-56
2022/10/12 15:26:42;;;;;;;0.70;0.60;;;23.60;48.50;;;;;;3892584;28;22430;-55
2022/10/12 15:29:46;;;;;;;0.68;0.60;;;23.90;48.40;;;;;;3944620;28;23421;-56
2022/10/12 15:32:49;;;;;;;1.15;0.47;;;23.80;48.70;;;;;;5372551;28;20636;-57
2022/10/12 15:35:50;;;;;;;0.70;0.57;;;24.00;48.90;;;;;;5710394;28;20063;-61
2022/10/12 15:38:52;;;;;;;0.70;0.57;;;24.00;48.60;;;;;;5762707;28;20039;-62
2022/10/12 15:41:55;;;;;;;0.60;0.50;;;24.00;48.60;;;;;;5390453;28;20043;-60
2022/10/12 15:44:58;;;;;;;0.60;0.43;;;23.80;48.80;;;;;;5452359;28;20053;-60
2022/10/12 15:48:00;;;;;;;1.48;0.40;;;24.00;48.70;;;;;;5356939;28;20487;-57
2022/10/12 15:51:08;;;;;;;0.68;0.60;;;23.80;48.50;;;;;;6043597;28;20401;-62
2022/10/12 15:54:10;;;;;;;0.95;0.50;;;24.00;48.60;;;;;;5512072;28;20846;-61
2022/10/12 15:57:11;;;;;;;0.52;0.50;;;24.20;48.90;;;;;;6051482;28;20149;-63
2022/10/12 16:00:15;;;;;;;1.15;0.45;;;24.50;49.00;;;;;;6076586;28;20166;-62
2022/10/12 16:03:19;;;;;;;0.43;0.40;;;23.90;48.70;;;;;;6083200;28;20051;-66
2022/10/12 16:06:27;;;;;;;0.80;0.50;;;24.20;49.00;;;;;;4654809;28;25069;-62
2022/10/12 16:09:29;;;;;;;1.17;0.60;;;24.00;49.20;;;;;;3725091;28;23258;-61
2022/10/12 16:12:31;;;;;;;1.02;0.63;;;23.50;49.00;;;;;;3392654;28;21133;-62